Montmorenci, IN (47962)

10:55 AM EST on March 01, 2015 (GMT -0500)
APRSWXNET West Lafayette IN US | Change Station
CLOSE
Current Station
Personal Weather Station
Location: Montmorenci, IN
Elevation: 666 ft
Nearby Weather Stations
Active Advisory: Winter Weather Advisory Active Notice: Local Storm Report

Elev 666 ft 40.44 °N, 87.03 °W | Updated 24 minutes ago

Snow
Snow
26 °F
Feels Like 26 °F
N
0
Wind Variable Wind from ESE
Gusts 0.0 mph

Today
High -- | Low -- °F
--% Chance of Precip.
Yesterday
High -- | Low -- °F
Precip. -- in
7:22 AM 6:39 PM
Waxing Gibbous, 86% visible
Pressure 30.39 in
Visibility 0.8 miles
Clouds Mostly Cloudy 2200 ft
Overcast 3300 ft
Windchill 26 °F
Dew Point 24 °F
Humidity 91%
Rainfall 0.00 in
Snow Depth Not available.
UV 1 out of 12
Pollen .50 out of 12
Air Quality Not available.
Flu Activity Not available.
SPECI KLAF 011547Z 00000KT 3/4SM -SN BR BKN022 OVC033 M04/M06 A3039 RMK AO2 P0000 T10441061

More Conditions Fewer Conditions

Pressure 30.39 in
Visibility 0.8 miles
Clouds Mostly Cloudy 2200 ft
Overcast 3300 ft
Windchill 26 °F
Dew Point 24 °F
Humidity 91%
Rainfall 0.00 in
Snow Depth Not available.
UV 1 out of 12
Pollen .50 out of 12
Air Quality Not available.
Flu Activity Not available.
SPECI KLAF 011547Z 00000KT 3/4SM -SN BR BKN022 OVC033 M04/M06 A3039 RMK AO2 P0000 T10441061

More Conditions Fewer Conditions

10-Day Weather Forecast

Almanac

Astronomy

Mar. 01, 2015 Rise Set
Actual Time
Civil Twilight
Nautical Twilight
Astronomical Twilight
Moon
Length of Visible Light
Length of Day
Tomorrow will be .
, % of the Moon is Illuminated

Today's Extremes

State Highs State Lows

Community

WunderPhotos

Upload Photos

1,801,435 photos uploaded!

WunderBlogs® & News

Nearby

Air Quality

  Air Quality AQ Index Pollutant
Not available.

Snow Depth

Station Depth Elevation

Earthquake Activity

City Distance Mag. Time & Date
Minimum magnitude displayed is 2.5.

Coastal Water Temperatures

Place Temperature

Nearby Weather Stations

Winter Weather Advisory
Statement as of 3:22 AM EST on March 01, 2015

... Winter Weather Advisory remains in effect until 7 PM EST this
evening...

* accumulations... total snow accumulations of 3 to 6 inches are
expected.

* Timing... accumulating snow will continue through the day today.

* Main impact... hazardous travel conditions due to accumulating
snow.

* Other impacts... reduced visibility in areas of heavier snow.

Precautionary/preparedness actions...

A Winter Weather Advisory for snow means that periods of snow
will cause travel difficulties. Be prepared for snow covered
roads and limited visibilities... and use caution while driving.